createdAt,value
2019-03-01T00:01:33.484Z,61.55
2019-03-01T00:04:08.118Z,61.59
2019-03-01T00:06:39.778Z,61.17
2019-03-01T00:09:29.599Z,61.84
2019-03-01T00:12:23.764Z,62.23
2019-03-01T00:15:29.119Z,62.93
2019-03-01T00:18:12.819Z,62.99
2019-03-01T00:20:47.359Z,62.71
2019-03-01T00:23:35.799Z,62.43
2019-03-01T00:26:10.624Z,62.96
2019-03-01T00:28:45.451Z,62.65
2019-03-01T00:31:22.831Z,61.91
2019-03-01T00:34:03.299Z,61.60
2019-03-01T00:36:55.979Z,61.07
2019-03-01T00:39:36.545Z,60.87
2019-03-01T00:42:26.105Z,61.16
2019-03-01T00:44:54.851Z,61.14
2019-03-01T00:47:23.609Z,60.87
2019-03-01T00:49:52.383Z,60.89
2019-03-01T00:52:21.136Z,60.86
2019-03-01T00:54:49.914Z,60.70
2019-03-01T00:57:18.665Z,60.98
2019-03-01T00:59:47.440Z,60.61
2019-03-01T01:02:16.181Z,61.16
2019-03-01T01:04:44.974Z,61.00
2019-03-01T01:07:14.125Z,60.95
2019-03-01T01:09:42.881Z,60.73
2019-03-01T01:12:11.648Z,60.65
2019-03-01T01:14:40.399Z,60.42
2019-03-01T01:17:09.159Z,60.94
2019-03-01T01:19:37.898Z,60.88
2019-03-01T01:22:06.664Z,60.53
2019-03-01T01:24:35.409Z,60.72
2019-03-01T01:27:04.266Z,60.53
2019-03-01T01:29:33.023Z,60.47
2019-03-01T01:32:01.921Z,60.39
2019-03-01T01:34:30.680Z,60.81
2019-03-01T01:36:59.426Z,60.48
2019-03-01T01:39:28.185Z,60.29
2019-03-01T01:41:57.846Z,60.28
2019-03-01T01:44:26.635Z,60.67
2019-03-01T01:46:55.658Z,60.17
2019-03-01T01:49:24.434Z,60.59
2019-03-01T01:51:53.180Z,60.85
2019-03-01T01:54:21.969Z,60.53
2019-03-01T01:56:50.689Z,60.87
2019-03-01T01:59:19.438Z,60.04
2019-03-01T02:01:48.218Z,60.98
2019-03-01T02:04:16.948Z,61.08
2019-03-01T02:06:46.050Z,60.24
2019-03-01T02:09:21.313Z,60.47
2019-03-01T02:11:50.387Z,60.54
2019-03-01T02:14:19.129Z,60.83
2019-03-01T02:16:47.945Z,60.48
2019-03-01T02:19:16.687Z,60.61
2019-03-01T02:21:45.480Z,60.67
2019-03-01T02:24:14.415Z,61.26
2019-03-01T02:26:43.159Z,60.95
2019-03-01T02:29:11.944Z,60.73
2019-03-01T02:31:43.792Z,60.58
2019-03-01T02:34:12.580Z,60.67
2019-03-01T02:36:41.319Z,60.79
2019-03-01T02:39:10.079Z,60.72
2019-03-01T02:41:39.222Z,60.27
2019-03-01T02:44:07.980Z,59.31
2019-03-01T02:46:36.725Z,58.67
2019-03-01T02:49:05.499Z,58.17
2019-03-01T02:51:34.242Z,58.18
2019-03-01T02:54:03.020Z,58.32
2019-03-01T02:56:31.768Z,58.16
2019-03-01T02:59:00.540Z,58.12
2019-03-01T03:01:29.289Z,58.15
2019-03-01T03:03:58.044Z,58.30
2019-03-01T03:06:28.382Z,58.19
2019-03-01T03:08:57.096Z,57.91
2019-03-01T03:11:26.087Z,58.27
2019-03-01T03:13:54.827Z,58.09
2019-03-01T03:16:23.599Z,57.96
2019-03-01T03:18:52.346Z,58.01
2019-03-01T03:21:21.337Z,58.18
2019-03-01T03:23:50.073Z,58.38
2019-03-01T03:26:18.843Z,58.29
2019-03-01T03:28:47.580Z,57.88
2019-03-01T03:31:16.386Z,58.01
2019-03-01T03:33:45.122Z,57.98
2019-03-01T03:36:13.860Z,58.05
2019-03-01T03:38:42.983Z,57.84
2019-03-01T03:41:12.254Z,57.97
2019-03-01T03:43:41.030Z,57.92
2019-03-01T03:46:09.763Z,57.97
2019-03-01T03:48:38.532Z,58.31
2019-03-01T03:51:07.297Z,58.34
2019-03-01T03:53:36.064Z,58.15
2019-03-01T03:56:04.797Z,58.31
2019-03-01T03:58:33.958Z,58.09
2019-03-01T04:01:02.720Z,58.04
2019-03-01T04:03:31.509Z,58.05
2019-03-01T04:06:00.559Z,58.38
2019-03-01T04:08:29.319Z,58.70
2019-03-01T04:10:58.089Z,58.69
2019-03-01T04:13:26.838Z,58.68
2019-03-01T04:15:55.905Z,58.63
2019-03-01T04:18:24.655Z,58.14
2019-03-01T04:20:53.399Z,58.44
2019-03-01T04:23:22.165Z,58.68
2019-03-01T04:25:50.911Z,58.51
2019-03-01T04:28:19.685Z,58.62
2019-03-01T04:30:48.445Z,58.70
2019-03-01T04:33:17.481Z,58.37
2019-03-01T04:35:46.248Z,58.48
2019-03-01T04:38:15.343Z,58.53
2019-03-01T04:40:44.095Z,58.56
2019-03-01T04:43:12.863Z,58.34
2019-03-01T04:45:41.625Z,58.06
2019-03-01T04:48:10.344Z,58.08
2019-03-01T04:50:39.125Z,58.04
2019-03-01T04:53:08.187Z,57.75
2019-03-01T04:55:37.379Z,57.62
2019-03-01T04:58:06.123Z,57.60
2019-03-01T05:00:34.899Z,57.84
2019-03-01T05:03:03.640Z,57.97
2019-03-01T05:05:32.434Z,58.07
2019-03-01T05:08:01.184Z,57.83
2019-03-01T05:10:29.920Z,57.93
2019-03-01T05:12:58.708Z,58.24
2019-03-01T05:15:27.666Z,58.18
2019-03-01T05:17:56.441Z,58.48
2019-03-01T05:20:25.180Z,58.44
2019-03-01T05:22:53.959Z,58.50
2019-03-01T05:25:22.689Z,58.59
2019-03-01T05:27:51.484Z,58.85
2019-03-01T05:30:20.243Z,58.84
2019-03-01T05:32:48.985Z,58.99
2019-03-01T05:35:17.728Z,59.04
2019-03-01T05:37:46.465Z,58.89
2019-03-01T05:40:16.741Z,59.04
2019-03-01T05:42:45.493Z,59.26
2019-03-01T05:45:20.084Z,59.20
2019-03-01T05:47:48.839Z,59.29
2019-03-01T05:50:17.699Z,59.40
2019-03-01T05:52:46.440Z,59.61
2019-03-01T05:55:15.524Z,60.06
2019-03-01T05:58:21.835Z,59.72
2019-03-01T06:00:52.509Z,59.83
2019-03-01T06:03:51.483Z,60.04
2019-03-01T06:06:40.873Z,60.21
2019-03-01T06:09:12.538Z,60.08
2019-03-01T06:11:52.906Z,60.32
2019-03-01T06:14:45.740Z,60.18
2019-03-01T06:17:26.238Z,60.04
2019-03-01T06:20:18.785Z,60.14
2019-03-01T06:22:56.540Z,60.26
2019-03-01T06:25:37.090Z,60.33
2019-03-01T06:28:17.379Z,60.09
2019-03-01T06:31:00.837Z,59.96
2019-03-01T06:33:55.942Z,59.82
2019-03-01T06:36:51.814Z,60.03
2019-03-01T06:39:56.554Z,60.00
2019-03-01T06:42:44.084Z,59.64
2019-03-01T06:45:24.574Z,59.27
2019-03-01T06:47:53.640Z,59.06
2019-03-01T06:50:24.005Z,59.38
2019-03-01T06:52:52.741Z,59.22
2019-03-01T06:55:30.274Z,58.93
2019-03-01T06:57:59.019Z,58.93
2019-03-01T07:00:28.894Z,58.89
2019-03-01T07:02:59.150Z,58.82
2019-03-01T07:05:27.938Z,58.78
2019-03-01T07:07:56.693Z,58.63
2019-03-01T07:10:25.519Z,58.50
2019-03-01T07:12:54.266Z,58.27
2019-03-01T07:15:23.007Z,58.04
2019-03-01T07:17:51.795Z,58.14
2019-03-01T07:20:20.558Z,58.10
2019-03-01T07:22:49.344Z,58.21
2019-03-01T07:25:18.094Z,58.14
2019-03-01T07:27:46.899Z,57.26
2019-03-01T07:30:16.011Z,57.50
2019-03-01T07:32:44.760Z,57.47
2019-03-01T07:35:13.533Z,57.47
2019-03-01T07:37:42.302Z,57.44
2019-03-01T07:40:13.014Z,57.49
2019-03-01T07:42:43.226Z,57.48
2019-03-01T07:45:13.399Z,57.31
2019-03-01T07:47:42.144Z,57.26
2019-03-01T07:50:13.221Z,56.86
2019-03-01T07:52:41.959Z,56.69
2019-03-01T07:55:12.291Z,56.96
2019-03-01T07:57:41.013Z,57.09
2019-03-01T08:00:15.022Z,56.43
2019-03-01T08:02:45.692Z,56.69
2019-03-01T08:05:16.327Z,56.90
2019-03-01T08:07:55.453Z,56.88
2019-03-01T08:10:20.618Z,56.81
2019-03-01T08:12:47.714Z,56.94
2019-03-01T08:15:18.736Z,56.99
2019-03-01T08:17:47.533Z,57.18
2019-03-01T08:20:17.871Z,57.21
2019-03-01T08:22:48.949Z,57.11
2019-03-01T08:25:22.831Z,57.19
2019-03-01T08:27:50.330Z,57.28
2019-03-01T08:30:18.940Z,57.14
2019-03-01T08:32:48.041Z,57.45
2019-03-01T08:35:18.882Z,57.78
2019-03-01T08:37:53.029Z,57.23
2019-03-01T08:40:19.349Z,57.05
2019-03-01T08:42:48.236Z,57.25
2019-03-01T08:45:21.667Z,57.32
2019-03-01T08:47:50.799Z,57.12
2019-03-01T08:50:19.538Z,57.15
2019-03-01T08:52:48.655Z,57.38
2019-03-01T08:55:23.170Z,57.35
2019-03-01T08:57:51.930Z,57.40
2019-03-01T09:00:28.034Z,57.56
2019-03-01T09:03:00.201Z,57.45
2019-03-01T09:05:28.959Z,56.92
2019-03-01T09:07:57.735Z,57.05
2019-03-01T09:10:29.249Z,57.24
2019-03-01T09:12:56.964Z,57.45
2019-03-01T09:15:25.705Z,57.51
2019-03-01T09:17:56.112Z,57.70
2019-03-01T09:20:24.854Z,57.62
2019-03-01T09:22:53.600Z,57.26
2019-03-01T09:25:22.383Z,58.11
2019-03-01T09:27:51.339Z,58.50
2019-03-01T09:30:22.850Z,58.58
2019-03-01T09:32:51.604Z,58.58
2019-03-01T09:35:39.802Z,58.74
2019-03-01T09:38:08.949Z,59.13
2019-03-01T09:40:37.743Z,59.75
2019-03-01T09:43:06.504Z,59.37
2019-03-01T09:45:36.534Z,59.84
2019-03-01T09:48:08.754Z,59.45
2019-03-01T09:50:38.097Z,59.16
2019-03-01T09:53:06.913Z,59.48
2019-03-01T09:55:37.672Z,59.80
2019-03-01T09:58:08.486Z,59.01
2019-03-01T10:00:56.370Z,58.49
2019-03-01T10:03:23.080Z,58.51
2019-03-01T10:05:51.832Z,59.54
2019-03-01T10:08:20.592Z,59.28
2019-03-01T10:10:49.346Z,59.36
2019-03-01T10:13:18.455Z,60.11
2019-03-01T10:15:47.224Z,60.48
2019-03-01T10:18:15.979Z,62.31
2019-03-01T10:20:44.759Z,61.74
2019-03-01T10:23:13.524Z,62.60
2019-03-01T10:25:42.345Z,62.59
2019-03-01T10:28:11.099Z,62.64
2019-03-01T10:30:39.884Z,62.91
2019-03-01T10:33:08.744Z,63.62
2019-03-01T10:35:37.519Z,63.71
2019-03-01T10:38:06.265Z,63.52
2019-03-01T10:40:35.144Z,62.97
2019-03-01T10:43:03.889Z,63.19
2019-03-01T10:45:33.810Z,63.89
2019-03-01T10:48:02.559Z,63.88
2019-03-01T10:50:31.793Z,63.52
2019-03-01T10:53:00.539Z,63.50
2019-03-01T10:55:29.670Z,64.01
2019-03-01T10:57:58.454Z,63.93
2019-03-01T11:00:31.641Z,63.71
2019-03-01T11:03:00.425Z,64.82
2019-03-01T11:05:29.274Z,65.70
2019-03-01T11:07:58.457Z,66.68
2019-03-01T11:10:29.706Z,66.33
2019-03-01T11:12:58.545Z,66.39
2019-03-01T11:15:27.638Z,66.55
2019-03-01T11:17:56.438Z,66.32
2019-03-01T11:20:25.999Z,66.16
2019-03-01T11:22:54.755Z,66.55
2019-03-01T11:25:27.283Z,66.29
2019-03-01T11:27:56.438Z,66.61
2019-03-01T11:30:27.988Z,66.98
2019-03-01T11:32:56.735Z,67.54
2019-03-01T11:35:25.514Z,68.19
2019-03-01T11:37:54.683Z,68.54
2019-03-01T11:40:34.765Z,68.90
2019-03-01T11:43:04.127Z,69.38
2019-03-01T11:45:33.158Z,69.36
2019-03-01T11:48:04.545Z,69.03
2019-03-01T11:50:33.844Z,69.10
2019-03-01T11:53:02.902Z,69.72
2019-03-01T11:55:32.598Z,69.40
2019-03-01T11:58:01.584Z,69.17
2019-03-01T12:00:30.644Z,69.11
2019-03-01T12:03:01.221Z,68.64
2019-03-01T12:05:29.964Z,67.81
2019-03-01T12:07:58.676Z,67.65
2019-03-01T12:10:31.905Z,67.21
2019-03-01T12:13:00.679Z,66.81
2019-03-01T12:15:30.901Z,67.04
2019-03-01T12:18:01.142Z,66.76
2019-03-01T12:20:32.100Z,66.58
2019-03-01T12:23:00.841Z,67.87
2019-03-01T12:25:29.636Z,69.14
2019-03-01T12:27:59.858Z,69.10
2019-03-01T12:30:30.414Z,69.43
2019-03-01T12:32:59.154Z,69.21
2019-03-01T12:35:27.924Z,68.16
2019-03-01T12:37:56.762Z,67.57
2019-03-01T12:40:27.784Z,67.39
2019-03-01T12:42:56.538Z,67.02
2019-03-01T12:45:25.384Z,67.29
2019-03-01T12:47:54.189Z,66.31
2019-03-01T12:50:23.167Z,66.18
2019-03-01T12:52:51.915Z,66.70
2019-03-01T12:55:26.042Z,66.91
2019-03-01T12:57:54.804Z,66.25
2019-03-01T13:00:29.065Z,66.51
2019-03-01T13:02:57.845Z,66.67
2019-03-01T13:05:29.153Z,66.96
2019-03-01T13:07:58.889Z,67.23
2019-03-01T13:10:30.503Z,66.42
2019-03-01T13:13:02.233Z,66.36
2019-03-01T13:15:31.590Z,66.25
2019-03-01T13:18:00.399Z,66.07
2019-03-01T13:20:29.931Z,66.46
2019-03-01T13:23:00.941Z,66.59
2019-03-01T13:25:30.252Z,66.93
2019-03-01T13:27:59.113Z,66.92
2019-03-01T13:30:32.610Z,67.28
2019-03-01T13:33:02.511Z,66.15
2019-03-01T13:35:30.795Z,66.40
2019-03-01T13:38:01.400Z,66.50
2019-03-01T13:40:30.379Z,67.04
2019-03-01T13:42:59.123Z,66.48
2019-03-01T13:45:27.937Z,66.82
2019-03-01T13:47:56.700Z,66.53
2019-03-01T13:50:26.247Z,66.45
2019-03-01T13:52:55.020Z,65.97
2019-03-01T13:55:23.994Z,65.56
2019-03-01T13:57:53.044Z,66.13
2019-03-01T14:00:22.989Z,65.27
2019-03-01T14:02:53.376Z,65.74
2019-03-01T14:05:22.144Z,65.81
2019-03-01T14:07:56.643Z,66.36
2019-03-01T14:10:29.588Z,65.48
2019-03-01T14:12:58.390Z,66.21
2019-03-01T14:15:27.141Z,66.00
2019-03-01T14:18:00.664Z,66.26
2019-03-01T14:20:26.684Z,65.83
2019-03-01T14:22:55.440Z,66.77
2019-03-01T14:25:24.195Z,66.99
2019-03-01T14:27:53.111Z,67.01
2019-03-01T14:30:30.264Z,67.56
2019-03-01T14:32:58.772Z,68.52
2019-03-01T14:35:28.378Z,69.38
2019-03-01T14:37:57.459Z,69.72
2019-03-01T14:40:26.218Z,69.38
2019-03-01T14:42:54.999Z,70.41
2019-03-01T14:45:29.149Z,69.90
2019-03-01T14:47:58.034Z,68.99
2019-03-01T14:50:33.273Z,69.73
2019-03-01T14:52:59.206Z,69.88
2019-03-01T14:55:36.732Z,69.66
2019-03-01T14:58:11.023Z,69.16
2019-03-01T15:00:50.882Z,68.52
2019-03-01T15:03:36.090Z,68.47
2019-03-01T15:06:07.536Z,68.35
2019-03-01T15:08:40.501Z,68.01
2019-03-01T15:11:13.877Z,67.95
2019-03-01T15:13:43.556Z,67.31
2019-03-01T15:16:14.312Z,67.27
2019-03-01T15:18:46.697Z,67.39
2019-03-01T15:21:15.825Z,67.37
2019-03-01T15:23:46.171Z,67.34
2019-03-01T15:26:15.376Z,67.57
2019-03-01T15:28:53.917Z,68.01
2019-03-01T15:31:20.681Z,67.99
2019-03-01T15:33:49.463Z,67.66
2019-03-01T15:36:20.139Z,68.10
2019-03-01T15:38:51.698Z,68.06
2019-03-01T15:41:20.451Z,68.09
2019-03-01T15:43:51.900Z,68.06
2019-03-01T15:46:20.654Z,68.25
2019-03-01T15:48:51.201Z,67.16
2019-03-01T15:51:19.960Z,67.38
2019-03-01T15:53:50.169Z,67.17
2019-03-01T15:56:18.906Z,67.72
2019-03-01T15:58:47.704Z,66.96
2019-03-01T16:01:16.451Z,66.72
2019-03-01T16:03:45.324Z,66.71
2019-03-01T16:06:19.167Z,66.84
2019-03-01T16:08:48.080Z,66.92
2019-03-01T16:11:15.219Z,67.02
2019-03-01T16:13:47.991Z,67.30
2019-03-01T16:16:14.638Z,67.08
2019-03-01T16:18:44.974Z,66.53
2019-03-01T16:21:13.732Z,66.76
2019-03-01T16:23:45.660Z,66.71
2019-03-01T16:26:14.416Z,66.47
2019-03-01T16:28:43.616Z,66.56
2019-03-01T16:31:13.408Z,66.88
2019-03-01T16:33:42.144Z,67.01
2019-03-01T16:36:13.560Z,67.39
2019-03-01T16:38:47.616Z,67.43
2019-03-01T16:41:13.064Z,67.25
2019-03-01T16:43:41.726Z,67.50
2019-03-01T16:46:10.508Z,67.63
2019-03-01T16:48:39.271Z,67.50
2019-03-01T16:51:10.200Z,67.70
2019-03-01T16:53:40.599Z,67.79
2019-03-01T16:56:09.927Z,67.38
2019-03-01T16:58:40.272Z,67.71
2019-03-01T17:01:09.041Z,68.32
2019-03-01T17:03:37.885Z,68.31
2019-03-01T17:06:06.662Z,68.04
2019-03-01T17:08:36.352Z,67.63
2019-03-01T17:11:06.667Z,67.49
2019-03-01T17:13:35.641Z,68.21
2019-03-01T17:16:04.425Z,68.09
2019-03-01T17:18:33.229Z,67.93
2019-03-01T17:21:02.198Z,67.94
2019-03-01T17:23:31.147Z,67.80
2019-03-01T17:25:59.929Z,68.10
2019-03-01T17:28:28.976Z,68.22
2019-03-01T17:30:58.282Z,68.26
2019-03-01T17:33:27.544Z,68.47
2019-03-01T17:35:56.333Z,68.44
2019-03-01T17:38:25.580Z,68.66
2019-03-01T17:40:56.035Z,69.01
2019-03-01T17:43:26.003Z,68.71
2019-03-01T17:45:57.761Z,69.09
2019-03-01T17:48:27.014Z,68.97
2019-03-01T17:51:00.098Z,68.76
2019-03-01T17:53:28.844Z,68.16
2019-03-01T17:55:59.876Z,67.92
2019-03-01T17:58:30.333Z,67.77
2019-03-01T18:01:02.935Z,67.67
2019-03-01T18:03:32.529Z,67.32
2019-03-01T18:06:01.306Z,67.27
2019-03-01T18:08:30.410Z,67.19
2019-03-01T18:11:00.203Z,67.26
2019-03-01T18:13:28.981Z,67.33
2019-03-01T18:15:57.748Z,67.28
2019-03-01T18:18:26.487Z,67.46
2019-03-01T18:20:55.285Z,67.27
2019-03-01T18:23:24.034Z,67.42
2019-03-01T18:25:52.785Z,67.21
2019-03-01T18:28:24.829Z,67.19
2019-03-01T18:30:56.308Z,67.19
2019-03-01T18:33:25.156Z,67.36
2019-03-01T18:35:55.779Z,67.22
2019-03-01T18:38:31.321Z,67.37
2019-03-01T18:40:58.211Z,67.36
2019-03-01T18:43:27.046Z,67.28
2019-03-01T18:45:55.841Z,67.13
2019-03-01T18:48:24.704Z,71.72
2019-03-01T18:50:53.809Z,70.74
2019-03-01T18:53:25.068Z,67.72
2019-03-01T18:55:53.751Z,61.90
2019-03-01T18:58:22.523Z,62.94
2019-03-01T19:00:53.363Z,63.77
2019-03-01T19:03:22.251Z,64.89
2019-03-01T19:05:51.335Z,65.50
2019-03-01T19:08:20.657Z,66.08
2019-03-01T19:10:54.322Z,66.94
2019-03-01T19:13:24.318Z,66.64
2019-03-01T19:15:54.763Z,66.80
2019-03-01T19:18:23.780Z,66.65
2019-03-01T19:20:56.383Z,66.56
2019-03-01T19:23:29.344Z,66.25
2019-03-01T19:25:57.887Z,66.41
2019-03-01T19:28:28.149Z,66.13
2019-03-01T19:30:58.979Z,65.94
2019-03-01T19:33:28.085Z,66.00
2019-03-01T19:35:57.164Z,65.92
2019-03-01T19:38:29.135Z,66.49
2019-03-01T19:40:58.230Z,66.09
2019-03-01T19:43:27.526Z,65.89
2019-03-01T19:45:56.356Z,66.30
2019-03-01T19:48:25.235Z,66.87
2019-03-01T19:50:54.385Z,67.59
2019-03-01T19:53:25.473Z,68.43
2019-03-01T19:55:54.137Z,68.36
2019-03-01T19:58:24.635Z,68.03
2019-03-01T20:00:53.729Z,67.49
2019-03-01T20:03:22.570Z,67.05
2019-03-01T20:05:51.389Z,67.18
2019-03-01T20:08:20.336Z,67.46
2019-03-01T20:10:51.003Z,66.76
2019-03-01T20:13:19.779Z,66.70
2019-03-01T20:15:48.755Z,67.00
2019-03-01T20:18:17.908Z,67.25
2019-03-01T20:20:48.133Z,67.37
2019-03-01T20:23:17.074Z,67.92
2019-03-01T20:25:50.650Z,68.24
2019-03-01T20:28:23.344Z,68.16
2019-03-01T20:31:01.537Z,67.91
2019-03-01T20:33:30.290Z,67.92
2019-03-01T20:35:59.383Z,67.74
2019-03-01T20:38:28.474Z,67.63
2019-03-01T20:40:59.772Z,67.47
2019-03-01T20:43:28.204Z,67.51
2019-03-01T20:45:56.994Z,67.32
2019-03-01T20:48:28.978Z,67.07
2019-03-01T20:50:56.601Z,66.73
2019-03-01T20:53:25.394Z,66.56
2019-03-01T20:55:54.168Z,66.29
2019-03-01T20:58:23.005Z,66.10
2019-03-01T21:00:51.800Z,65.82
2019-03-01T21:03:24.137Z,65.86
2019-03-01T21:05:51.055Z,66.03
2019-03-01T21:08:20.147Z,65.91
2019-03-01T21:10:51.790Z,65.72
2019-03-01T21:13:20.544Z,65.39
2019-03-01T21:15:49.312Z,65.43
2019-03-01T21:18:18.080Z,65.51
2019-03-01T21:20:46.929Z,65.24
2019-03-01T21:23:15.946Z,64.84
2019-03-01T21:25:44.925Z,64.85
2019-03-01T21:28:15.084Z,65.00
2019-03-01T21:30:45.565Z,65.00
2019-03-01T21:33:14.465Z,65.13
2019-03-01T21:35:43.248Z,65.03
2019-03-01T21:38:13.903Z,64.82
2019-03-01T21:40:44.440Z,64.98
2019-03-01T21:43:13.610Z,64.74
2019-03-01T21:45:42.354Z,65.46
2019-03-01T21:48:12.119Z,65.76
2019-03-01T21:50:42.425Z,65.75
2019-03-01T21:53:11.404Z,65.62
2019-03-01T21:55:40.161Z,65.61
2019-03-01T21:58:08.946Z,65.29
2019-03-01T22:00:37.799Z,65.40
2019-03-01T22:03:06.573Z,65.20
2019-03-01T22:05:35.359Z,64.95
2019-03-01T22:08:04.226Z,64.31
2019-03-01T22:10:35.597Z,64.28
2019-03-01T22:13:05.049Z,64.39
2019-03-01T22:15:33.794Z,64.23
2019-03-01T22:18:02.869Z,64.45
2019-03-01T22:20:33.060Z,64.34
2019-03-01T22:23:01.869Z,63.88
2019-03-01T22:25:30.625Z,64.34
2019-03-01T22:28:01.346Z,63.68
2019-03-01T22:30:32.384Z,63.82
2019-03-01T22:33:01.158Z,63.53
2019-03-01T22:35:29.905Z,63.65
2019-03-01T22:38:01.152Z,63.93
2019-03-01T22:40:29.482Z,63.98
2019-03-01T22:42:58.462Z,63.96
2019-03-01T22:45:27.201Z,64.04
2019-03-01T22:47:55.949Z,63.95
2019-03-01T22:50:25.647Z,63.84
2019-03-01T22:52:54.403Z,63.78
2019-03-01T22:55:23.189Z,63.80
2019-03-01T22:57:54.219Z,63.96
2019-03-01T23:00:30.197Z,63.81
2019-03-01T23:02:59.128Z,63.62
2019-03-01T23:05:27.909Z,63.62
2019-03-01T23:08:00.037Z,63.31
2019-03-01T23:10:27.571Z,63.33
2019-03-01T23:12:56.315Z,63.50
2019-03-01T23:15:25.736Z,63.69
2019-03-01T23:17:54.488Z,63.83
2019-03-01T23:20:26.652Z,63.78
2019-03-01T23:22:55.424Z,63.71
2019-03-01T23:25:24.242Z,63.56
2019-03-01T23:27:52.979Z,63.66
2019-03-01T23:30:22.228Z,63.46
2019-03-01T23:32:52.716Z,63.49
2019-03-01T23:35:21.399Z,63.47
2019-03-01T23:37:51.995Z,63.52
2019-03-01T23:40:20.742Z,63.46
2019-03-01T23:42:49.545Z,63.21
2019-03-01T23:45:18.565Z,63.18
2019-03-01T23:47:47.639Z,63.29
2019-03-01T23:50:16.369Z,63.55
2019-03-01T23:52:45.156Z,63.84
2019-03-01T23:55:15.607Z,63.90
2019-03-01T23:57:44.408Z,64.00
